Terminal Aerodrome Forecast
Issued by NWS Paducah, KY

Home | Current Version | Previous Version | Text Only | Print | Product List | Glossary Off
Versions: 1 2 3 4 5 6 7 8 9 10 11 12 13 14 15 16 17 18 19 20 21

600
FTUS43 KPAH 062329
TAFPAH
TAF
KPAH 062329Z 0700/0724 32009G16KT P6SM BKN020
     FM070400 36004KT P6SM BKN150
     FM072200 02006KT P6SM SCT100=

USA.gov is the U.S. government's official web portal to all federal, state and local government web resources and services.